Airfield :
LOGIN :

Register | Disclaimer

   EN    FR    IT 

 










Legend :    VFR   Marginal VFR   IFR   Intensive IFR   Very Intensive IFR
Visi :
Ceiling :
>= 8 km
>= 3000ft
5 to 8 km
1000 to 3000 ft
1500m to 5 km
500 to 1000 ft
800 to 1500m
200 to 500 ft
< 800m
< 200 ft
Symbols :   Thunderstorms  Fog  Heavy snow  Heavy precipitations  Wind > 20 kt
SIGMETs :     Misc.  Thunderstorms  Icing  Turbulence  Mountain Waves  Volcanic Ashes







- Airport Elevation : 245 ft
- IATA code : BIQ
- Download approach charts


LFBZ - Biarritz

CURRENT METAR :
  • 220200Z AUTO 24002KT 9999 OVC009 12/12 Q1020 TEMPO 0400 FG VV///

EXPIRED METARs :
  • 220130Z AUTO 26002KT 9999 FEW008 BKN041 11/11 Q1020 TEMPO 0400 FG VV///
  • 220100Z AUTO 24003KT 9999 BKN038 11/10 Q1020 BECMG 3000 BR BKN010
  • 220030Z AUTO 23003KT 9999 FEW038 12/11 Q1020 BECMG 3000 BR BKN010
  • 220000Z AUTO 25003KT 9999 FEW039 BKN050 12/11 Q1020 BECMG 3000 BR BKN010
  • 212330Z AUTO 22004KT 200V260 9999 BKN043 BKN049 12/11 Q1020 BECMG 3000 BR BKN010

TAF TAF LFBZ
Valid from the 22 at 00:00 until the 23 at 00:00 UTC


212300Z 2200/2224 VRB03KT CAVOK
BECMG 2201/2203 3000 BR BKN010
PROB30 2203/2207 0400 FG VV///
BECMG 2210/2212 34006KT CAVOK
No reported NOTAMs for that airfield.



MET'MAP, your aeronautical weather chart ! - Copyright ORBIFLY December 2007 - Disclaimer

ORBIFLY MET'MAP TEAM :

Programming & Development : Alexandra Zaïnal
Concept & Development : Baudouin d'Aumeries
Co-Development & Prog : Marc-Olivier Méhu
Technical & hardware support : Manuel Goepfert

Contact : metmap@orbifly.com




SOURCES & CREDITS :

   NOAA